Time;durP1;ratioP1;P1;durP2;ratioP2;P2;SDS_P1;SDS_P2;PMS_P1;PMS_P2;Temp;Humidity;BMP_temperature;BMP_pressure;BME280_temperature;BME280_humidity;BME280_pressure;Samples;Min_cycle;Max_cycle;Signal;HPM_P1;HPM_P2
2024/02/09 00:02:07;;;;;;;1100.37;993.00;;;9.60;99.90;;;;;;5056426;28;20458;-65
2024/02/09 00:04:38;;;;;;;1083.33;977.53;;;9.60;99.90;;;;;;5057156;28;21003;-64
2024/02/09 00:07:06;;;;;;;1090.67;984.37;;;9.60;99.90;;;;;;5061012;28;20536;-64
2024/02/09 00:09:33;;;;;;;1098.23;991.43;;;9.60;99.90;;;;;;5060516;28;20443;-64
2024/02/09 00:12:01;;;;;;;1100.37;993.03;;;9.60;99.90;;;;;;5062965;28;20454;-65
2024/02/09 00:14:28;;;;;;;1110.50;999.90;;;9.60;99.90;;;;;;5058152;28;20958;-64
2024/02/09 00:16:55;;;;;;;1111.60;999.90;;;9.60;99.90;;;;;;5062222;28;20451;-65
2024/02/09 00:19:22;;;;;;;1121.87;999.90;;;9.50;99.90;;;;;;5061371;28;20454;-65
2024/02/09 00:21:48;;;;;;;1100.10;991.30;;;9.50;99.90;;;;;;5059313;28;20827;-66
2024/02/09 00:24:17;;;;;;;1098.93;989.53;;;9.50;99.90;;;;;;5061833;28;20477;-65
2024/02/09 00:26:43;;;;;;;1096.87;987.60;;;9.50;99.90;;;;;;5060847;28;20516;-65
2024/02/09 00:29:10;;;;;;;1099.03;989.80;;;9.50;99.90;;;;;;5062264;28;20450;-65
2024/02/09 00:31:37;;;;;;;1080.00;971.90;;;9.50;99.90;;;;;;5060168;28;20455;-65
2024/02/09 00:34:04;;;;;;;1081.40;972.70;;;9.50;99.90;;;;;;5062742;28;20557;-65
2024/02/09 00:36:33;;;;;;;1092.07;981.37;;;9.50;99.90;;;;;;5060144;28;20447;-65
2024/02/09 00:38:59;;;;;;;1120.60;999.90;;;9.50;99.90;;;;;;5062590;28;20471;-64
2024/02/09 00:41:28;;;;;;;1122.20;999.90;;;9.50;99.90;;;;;;5057339;28;20457;-64
2024/02/09 00:43:55;;;;;;;1124.77;999.90;;;9.50;99.90;;;;;;5061362;28;20832;-65
2024/02/09 00:46:22;;;;;;;1110.57;999.90;;;9.50;99.90;;;;;;5060663;28;20490;-65
2024/02/09 00:48:49;;;;;;;1115.13;999.90;;;9.60;99.90;;;;;;5058702;28;20901;-65
2024/02/09 00:51:16;;;;;;;1109.70;999.90;;;9.60;99.90;;;;;;5064742;28;20828;-65
2024/02/09 00:53:43;;;;;;;1107.50;998.67;;;9.60;99.90;;;;;;5065920;28;20474;-65
2024/02/09 00:56:10;;;;;;;1110.47;999.90;;;9.60;99.90;;;;;;5063886;28;20447;-65
2024/02/09 00:58:39;;;;;;;1104.83;995.83;;;9.60;99.90;;;;;;5059829;28;20451;-65
2024/02/09 01:01:09;;;;;;;1087.77;980.50;;;9.60;99.90;;;;;;5059601;28;20453;-65
2024/02/09 01:03:36;;;;;;;1074.47;968.27;;;9.50;99.90;;;;;;5059548;28;20479;-65
2024/02/09 01:06:04;;;;;;;1069.50;963.00;;;9.50;99.90;;;;;;5062097;28;20454;-65
2024/02/09 01:08:30;;;;;;;1059.47;953.27;;;9.40;99.90;;;;;;5059616;28;20451;-65
2024/02/09 01:10:57;;;;;;;1048.07;942.90;;;9.50;99.90;;;;;;5061340;28;20451;-65
2024/02/09 02:46:17;;;;;;;1052.67;964.07;;;9.70;99.90;;;;;;5059156;28;20726;-64
2024/02/09 03:05:17;;;;;;;1097.17;999.90;;;9.50;99.90;;;;;;5058462;28;20562;-64
2024/02/09 03:07:44;;;;;;;1075.70;982.40;;;9.50;99.90;;;;;;5057552;28;20462;-64
2024/02/09 03:10:13;;;;;;;1077.80;984.57;;;9.50;99.90;;;;;;5059298;28;20975;-65
2024/02/09 03:12:39;;;;;;;1073.27;980.07;;;9.40;99.90;;;;;;5057060;28;20471;-64
2024/02/09 03:15:09;;;;;;;1060.20;966.27;;;9.50;99.90;;;;;;5059867;28;20964;-65
2024/02/09 03:17:36;;;;;;;1105.40;999.90;;;9.50;99.90;;;;;;5057386;28;20830;-65
2024/02/09 03:20:05;;;;;;;1104.77;999.90;;;9.50;99.90;;;;;;5059912;28;20450;-65
2024/02/09 03:22:32;;;;;;;1115.57;999.90;;;9.40;99.90;;;;;;5057113;28;20475;-65
2024/02/09 03:25:02;;;;;;;1123.60;999.90;;;9.50;99.90;;;;;;5059459;28;20529;-65
2024/02/09 03:27:33;;;;;;;1093.33;998.37;;;9.50;99.90;;;;;;5055082;28;20936;-65
2024/02/09 03:30:00;;;;;;;1124.27;999.90;;;9.50;99.90;;;;;;5059627;28;20447;-64
2024/02/09 03:32:28;;;;;;;1125.70;999.90;;;9.60;99.90;;;;;;5059464;28;20467;-65
2024/02/09 03:34:55;;;;;;;1107.33;999.90;;;9.60;99.90;;;;;;5058673;28;20805;-65
2024/02/09 03:37:24;;;;;;;1105.90;999.90;;;9.60;99.90;;;;;;5057837;28;21032;-64
2024/02/09 03:39:51;;;;;;;1104.57;999.90;;;9.60;99.90;;;;;;5056201;28;20467;-65
2024/02/09 03:42:20;;;;;;;1132.53;999.90;;;9.60;99.90;;;;;;5059319;28;20466;-63
2024/02/09 03:44:49;;;;;;;1102.80;999.90;;;9.70;99.90;;;;;;5061335;28;20477;-65
2024/02/09 03:47:16;;;;;;;1087.23;999.90;;;9.80;99.90;;;;;;5062081;28;20868;-64
2024/02/09 03:49:43;;;;;;;1087.37;999.90;;;9.90;99.90;;;;;;5061030;28;20823;-64
2024/02/09 03:52:09;;;;;;;1056.23;972.17;;;9.80;99.90;;;;;;5062777;28;20453;-65
2024/02/09 03:54:36;;;;;;;1039.47;958.20;;;9.80;99.90;;;;;;5060672;28;20443;-65
2024/02/09 03:57:03;;;;;;;1035.13;954.37;;;9.90;99.90;;;;;;5063243;28;20446;-64
2024/02/09 03:59:30;;;;;;;1027.47;946.10;;;9.80;99.90;;;;;;5060446;28;20833;-64
2024/02/09 04:02:04;;;;;;;1021.27;939.00;;;9.80;99.90;;;;;;5062174;28;20474;-64
2024/02/09 04:04:31;;;;;;;1045.70;959.60;;;9.80;99.90;;;;;;5058141;28;20510;-64
2024/02/09 04:06:58;;;;;;;1067.27;981.20;;;9.70;99.90;;;;;;5062594;28;20831;-65
2024/02/09 04:09:25;;;;;;;1065.27;979.97;;;9.70;99.90;;;;;;5060577;28;20459;-65
2024/02/09 04:11:52;;;;;;;1069.50;983.50;;;9.70;99.90;;;;;;5061367;28;20447;-64
2024/02/09 04:14:18;;;;;;;1075.83;987.50;;;9.70;99.90;;;;;;5061263;28;20447;-64
2024/02/09 04:16:49;;;;;;;1094.67;999.90;;;9.70;99.90;;;;;;5061294;28;20946;-64
2024/02/09 04:19:17;;;;;;;1070.67;979.47;;;9.70;99.90;;;;;;5062027;28;20976;-65
2024/02/09 04:21:47;;;;;;;1070.87;979.03;;;9.60;99.90;;;;;;5060189;28;20451;-64
2024/02/09 04:24:14;;;;;;;1077.90;985.20;;;9.60;99.90;;;;;;5061884;28;20854;-65
2024/02/09 04:26:41;;;;;;;1067.03;974.53;;;9.60;99.90;;;;;;5059805;28;20447;-65
2024/02/09 04:29:08;;;;;;;1068.87;975.70;;;9.60;99.90;;;;;;5060034;28;20874;-65
2024/02/09 04:31:35;;;;;;;1046.93;954.97;;;9.50;99.90;;;;;;5059963;28;20447;-65
2024/02/09 04:34:02;;;;;;;1049.53;956.17;;;9.50;99.90;;;;;;5062534;28;20469;-65
2024/02/09 04:36:30;;;;;;;1063.10;969.07;;;9.70;99.90;;;;;;5057068;28;20447;-64
2024/02/09 04:38:57;;;;;;;1030.27;937.07;;;9.50;99.90;;;;;;5061771;28;20455;-64
2024/02/09 04:41:24;;;;;;;1058.57;964.57;;;9.50;99.90;;;;;;5059836;28;20833;-65
2024/02/09 04:43:52;;;;;;;1068.50;974.17;;;9.50;99.90;;;;;;5060813;28;20483;-65
2024/02/09 04:46:22;;;;;;;1063.43;970.03;;;9.50;99.90;;;;;;5060868;28;20446;-65
2024/02/09 04:48:49;;;;;;;1071.80;978.10;;;9.50;99.90;;;;;;5058210;28;20843;-64
2024/02/09 04:51:16;;;;;;;1065.20;970.70;;;9.50;99.90;;;;;;5060814;28;20450;-65
2024/02/09 04:53:44;;;;;;;1058.87;965.87;;;9.50;99.90;;;;;;5058933;28;20479;-65
2024/02/09 04:56:11;;;;;;;1059.83;966.17;;;9.50;99.90;;;;;;5062000;28;20446;-65
2024/02/09 04:58:38;;;;;;;1063.47;970.37;;;9.40;99.90;;;;;;5059424;28;20447;-65
2024/02/09 05:01:05;;;;;;;1035.40;941.57;;;9.40;99.90;;;;;;5062076;28;20549;-65
2024/02/09 05:03:31;;;;;;;1026.30;933.10;;;9.50;99.90;;;;;;5059113;28;20506;-65
2024/02/09 05:05:58;;;;;;;1040.20;948.20;;;9.50;99.90;;;;;;5061405;28;20479;-65
2024/02/09 05:08:25;;;;;;;1056.67;963.80;;;9.50;99.90;;;;;;5059341;28;20447;-65
2024/02/09 05:10:53;;;;;;;1054.67;963.40;;;9.50;99.90;;;;;;5060500;28;20451;-65
2024/02/09 05:13:20;;;;;;;1027.37;935.67;;;9.50;99.90;;;;;;5060400;28;20476;-64
2024/02/09 05:15:46;;;;;;;1023.30;930.27;;;9.50;99.90;;;;;;5059925;28;20451;-64
2024/02/09 05:18:14;;;;;;;1045.57;951.07;;;9.40;99.90;;;;;;5061339;28;20453;-65
2024/02/09 05:20:41;;;;;;;1059.03;965.57;;;9.40;99.90;;;;;;5058703;28;20443;-65
2024/02/09 05:23:07;;;;;;;1060.27;965.40;;;9.40;99.90;;;;;;5058487;28;20470;-65
2024/02/09 05:25:34;;;;;;;1071.90;977.50;;;9.40;99.90;;;;;;5058696;28;20475;-65
2024/02/09 05:28:04;;;;;;;1089.57;993.50;;;9.50;99.90;;;;;;5061472;28;20455;-65
2024/02/09 05:30:31;;;;;;;1067.43;973.90;;;9.60;99.90;;;;;;5056064;28;20461;-65
2024/02/09 05:32:58;;;;;;;1058.87;965.97;;;9.70;99.90;;;;;;5060430;28;20468;-66
2024/02/09 05:35:24;;;;;;;1028.37;940.37;;;9.80;99.90;;;;;;5058651;28;20479;-64
2024/02/09 05:37:51;;;;;;;1012.43;927.30;;;10.00;99.90;;;;;;5059784;28;20493;-66
2024/02/09 05:40:18;;;;;;;975.77;894.23;;;10.00;99.90;;;;;;5059749;28;20446;-66
2024/02/09 05:42:45;;;;;;;959.67;879.67;;;10.10;99.90;;;;;;5058469;28;20481;-67
2024/02/09 05:45:13;;;;;;;944.77;866.63;;;10.10;99.90;;;;;;5060426;28;20474;-66
2024/02/09 05:47:40;;;;;;;934.70;857.33;;;10.20;99.90;;;;;;5058679;28;20447;-66
2024/02/09 05:50:07;;;;;;;921.17;845.77;;;10.30;99.90;;;;;;5061548;28;20478;-66
2024/02/09 05:52:34;;;;;;;914.00;838.97;;;10.30;99.90;;;;;;5058513;28;20499;-67
2024/02/09 05:55:01;;;;;;;895.33;821.93;;;10.30;99.90;;;;;;5061510;28;20820;-68
2024/02/09 05:57:28;;;;;;;880.67;809.73;;;10.30;99.90;;;;;;5055800;28;20477;-67
2024/02/09 05:59:56;;;;;;;869.97;798.93;;;10.40;99.90;;;;;;5060086;28;20455;-68
2024/02/09 06:02:24;;;;;;;857.60;787.47;;;10.40;99.90;;;;;;5058358;28;20515;-68
2024/02/09 06:04:50;;;;;;;850.57;779.97;;;10.30;99.90;;;;;;5055957;28;20467;-68
2024/02/09 06:07:17;;;;;;;837.30;768.10;;;10.30;99.90;;;;;;5061745;28;20446;-68
2024/02/09 06:09:44;;;;;;;836.20;767.80;;;10.30;99.90;;;;;;5057928;28;20454;-68
2024/02/09 06:12:13;;;;;;;819.50;753.57;;;10.30;99.90;;;;;;5059946;28;20511;-68
2024/02/09 06:14:40;;;;;;;820.67;757.00;;;10.20;99.90;;;;;;5058181;28;20447;-68
2024/02/09 06:17:08;;;;;;;818.60;755.10;;;10.10;99.90;;;;;;5060519;28;20451;-68
2024/02/09 06:19:36;;;;;;;828.33;764.23;;;10.00;99.90;;;;;;5057614;28;21071;-68
2024/02/09 06:22:04;;;;;;;823.90;760.00;;;9.90;99.90;;;;;;5060304;28;20454;-68
2024/02/09 06:24:31;;;;;;;826.33;761.17;;;9.90;99.90;;;;;;5057607;28;20478;-68
2024/02/09 06:26:58;;;;;;;826.93;760.70;;;9.90;99.90;;;;;;5058510;28;20961;-68
2024/02/09 06:29:27;;;;;;;822.17;755.83;;;9.80;99.90;;;;;;5057762;28;20455;-68
2024/02/09 06:31:57;;;;;;;823.00;755.53;;;9.70;99.90;;;;;;5058446;28;20862;-69
2024/02/09 06:34:23;;;;;;;821.73;754.23;;;9.80;99.90;;;;;;5058070;28;20459;-68
2024/02/09 06:36:52;;;;;;;813.37;746.27;;;9.90;99.90;;;;;;5058358;28;20451;-67
2024/02/09 06:39:18;;;;;;;821.13;754.50;;;9.80;99.90;;;;;;5058693;28;20541;-68
2024/02/09 06:41:47;;;;;;;810.10;743.57;;;9.80;99.90;;;;;;5057417;28;20451;-68
2024/02/09 06:44:13;;;;;;;807.63;740.77;;;9.80;99.90;;;;;;5058918;28;20537;-69
2024/02/09 06:46:40;;;;;;;812.40;744.97;;;9.90;99.90;;;;;;5057234;28;20448;-68
2024/02/09 06:49:07;;;;;;;805.23;738.07;;;10.00;99.90;;;;;;5059772;28;20454;-68
2024/02/09 06:51:34;;;;;;;808.10;742.33;;;10.00;99.90;;;;;;5057021;28;20447;-68
2024/02/09 06:54:03;;;;;;;799.93;734.77;;;10.10;99.90;;;;;;5059584;28;20498;-68
2024/02/09 06:56:30;;;;;;;809.17;744.17;;;10.10;99.90;;;;;;5054519;28;20931;-68
2024/02/09 06:58:58;;;;;;;808.87;745.27;;;10.10;99.90;;;;;;5058834;28;20459;-69
2024/02/09 07:01:25;;;;;;;808.43;747.03;;;10.30;99.90;;;;;;5057362;28;20443;-69
2024/02/09 07:03:53;;;;;;;803.37;744.27;;;10.30;99.90;;;;;;5058177;28;20860;-69
2024/02/09 07:06:22;;;;;;;807.80;750.50;;;10.50;99.90;;;;;;5058847;28;20478;-68
2024/02/09 07:08:52;;;;;;;802.23;746.63;;;10.50;99.90;;;;;;5054934;28;20467;-68
2024/02/09 07:11:21;;;;;;;805.77;752.30;;;10.50;99.90;;;;;;5057724;28;20442;-68
2024/02/09 07:13:47;;;;;;;813.30;761.50;;;10.70;99.90;;;;;;5056987;28;20474;-68
2024/02/09 07:16:14;;;;;;;816.07;766.27;;;10.80;99.90;;;;;;5059078;28;20438;-67
2024/02/09 07:18:42;;;;;;;817.73;768.90;;;10.70;99.90;;;;;;5060732;28;20946;-68
2024/02/09 07:21:09;;;;;;;808.00;761.77;;;10.70;99.90;;;;;;5060419;28;20487;-69
2024/02/09 07:23:36;;;;;;;802.70;759.37;;;10.70;99.90;;;;;;5060750;28;20520;-68
2024/02/09 07:26:04;;;;;;;798.47;755.40;;;10.70;99.90;;;;;;5063393;28;20475;-68
2024/02/09 07:28:32;;;;;;;804.17;755.83;;;10.70;99.90;;;;;;5062974;28;20550;-67
2024/02/09 07:30:59;;;;;;;805.47;755.53;;;10.70;99.90;;;;;;5066374;28;20458;-67
2024/02/09 07:33:25;;;;;;;802.97;750.70;;;10.70;99.90;;;;;;5069551;28;20558;-66
2024/02/09 07:35:52;;;;;;;803.20;751.77;;;10.60;99.90;;;;;;5068879;28;20464;-67
2024/02/09 07:38:19;;;;;;;796.63;746.50;;;10.70;99.90;;;;;;5068298;28;20934;-66
2024/02/09 07:40:46;;;;;;;803.13;752.60;;;10.80;99.90;;;;;;5068805;28;20461;-66
2024/02/09 07:43:13;;;;;;;803.10;754.07;;;10.80;99.90;;;;;;5067207;28;20517;-67
2024/02/09 07:45:42;;;;;;;801.83;750.70;;;10.80;99.90;;;;;;5069369;28;20496;-67
2024/02/09 07:48:08;;;;;;;798.63;748.50;;;10.80;99.90;;;;;;5063741;28;20455;-67
2024/02/09 07:50:41;;;;;;;787.43;741.63;;;10.80;99.90;;;;;;5069063;28;20450;-68
2024/02/09 07:53:08;;;;;;;792.90;745.17;;;10.90;99.90;;;;;;5066441;28;20470;-67
2024/02/09 07:55:35;;;;;;;803.43;754.20;;;11.00;99.90;;;;;;5069039;28;20460;-67
2024/02/09 07:58:02;;;;;;;802.23;754.53;;;11.00;99.90;;;;;;5066643;28;20518;-66
2024/02/09 08:00:28;;;;;;;778.63;733.00;;;11.10;99.90;;;;;;5068622;28;20454;-66
2024/02/09 08:02:56;;;;;;;794.17;747.60;;;11.20;99.90;;;;;;5067362;28;20466;-67
2024/02/09 08:05:24;;;;;;;802.27;754.77;;;11.20;99.90;;;;;;5068502;28;20474;-68
2024/02/09 08:07:52;;;;;;;790.63;743.33;;;11.10;99.90;;;;;;5065241;28;20454;-67
2024/02/09 08:10:19;;;;;;;782.03;735.03;;;11.10;99.90;;;;;;5067922;28;20497;-66
2024/02/09 08:12:46;;;;;;;776.20;729.30;;;11.10;99.90;;;;;;5067865;28;20466;-68
2024/02/09 08:15:14;;;;;;;768.80;724.20;;;11.10;99.90;;;;;;5066876;28;20447;-67
2024/02/09 08:17:45;;;;;;;788.43;741.37;;;11.20;99.90;;;;;;5068566;28;20533;-68
2024/02/09 08:20:13;;;;;;;789.07;740.47;;;11.20;99.90;;;;;;5064185;28;20458;-67
2024/02/09 08:22:44;;;;;;;799.40;751.50;;;11.20;99.90;;;;;;5067990;28;20476;-68
2024/02/09 08:25:11;;;;;;;798.10;750.40;;;11.20;99.90;;;;;;5062335;28;21051;-67
2024/02/09 08:27:38;;;;;;;812.43;763.17;;;11.20;99.90;;;;;;5067035;28;20922;-67
2024/02/09 08:30:07;;;;;;;801.40;753.60;;;11.10;99.90;;;;;;5063681;28;20845;-71
2024/02/09 08:32:35;;;;;;;813.13;764.03;;;11.30;99.90;;;;;;5066470;28;20477;-66
2024/02/09 08:35:03;;;;;;;790.53;746.60;;;11.30;99.90;;;;;;5066410;28;20454;-67
2024/02/09 08:37:31;;;;;;;691.45;661.15;;;11.30;99.90;;;;;;5065700;28;20916;-68
2024/02/09 08:39:58;;;;;;;728.03;694.73;;;11.40;99.90;;;;;;5064628;28;20231;-68
2024/02/09 08:42:25;;;;;;;727.77;694.50;;;11.40;99.90;;;;;;5065483;28;20481;-67
2024/02/09 08:44:52;;;;;;;761.57;725.23;;;11.40;99.90;;;;;;5066901;28;20453;-67
2024/02/09 08:47:18;;;;;;;768.37;731.77;;;11.50;99.90;;;;;;5066911;28;20457;-66
2024/02/09 08:49:46;;;;;;;753.57;718.77;;;11.60;99.90;;;;;;5068291;28;20458;-67
2024/02/09 08:52:13;;;;;;;772.07;736.07;;;11.60;99.90;;;;;;5065839;28;20824;-66
2024/02/09 08:54:41;;;;;;;760.27;724.47;;;11.70;99.90;;;;;;5068227;28;20446;-67
2024/02/09 08:57:08;;;;;;;787.77;749.73;;;11.90;99.90;;;;;;5065323;28;20452;-67
2024/02/09 08:59:35;;;;;;;735.13;701.40;;;11.80;99.90;;;;;;5067705;28;20451;-67
2024/02/09 09:02:02;;;;;;;686.30;656.97;;;12.00;99.90;;;;;;5065281;28;20447;-67
2024/02/09 09:04:28;;;;;;;672.53;644.40;;;12.10;99.90;;;;;;5067828;28;20446;-67
2024/02/09 09:06:55;;;;;;;636.53;611.03;;;12.00;99.90;;;;;;5066381;28;20523;-67
2024/02/09 09:09:22;;;;;;;631.63;605.97;;;12.10;99.90;;;;;;5066786;28;20451;-67
2024/02/09 09:11:50;;;;;;;608.37;584.50;;;12.10;99.90;;;;;;5066791;28;20496;-67
2024/02/09 09:14:17;;;;;;;562.87;541.63;;;12.20;99.90;;;;;;5064835;28;20479;-67
2024/02/09 09:16:44;;;;;;;441.70;426.00;;;12.30;99.90;;;;;;5065827;28;20538;-66
2024/02/09 09:19:14;;;;;;;330.57;319.03;;;12.30;99.90;;;;;;5063902;28;20455;-67
2024/02/09 09:21:41;;;;;;;223.33;215.30;;;12.50;99.90;;;;;;5065899;28;20446;-67
2024/02/09 09:24:09;;;;;;;210.93;202.87;;;12.50;99.90;;;;;;5063723;28;20496;-66
2024/02/09 09:26:36;;;;;;;201.47;194.07;;;12.60;99.90;;;;;;5065694;28;20999;-67
2024/02/09 09:29:04;;;;;;;199.67;192.30;;;12.70;99.90;;;;;;5064196;28;20446;-68
2024/02/09 09:31:31;;;;;;;190.83;183.63;;;12.80;99.90;;;;;;5065528;28;20898;-72
2024/02/09 09:33:57;;;;;;;185.80;179.20;;;12.80;99.90;;;;;;5065048;28;20470;-66
2024/02/09 09:36:26;;;;;;;176.97;170.60;;;12.80;99.90;;;;;;5064885;28;20440;-68
2024/02/09 09:38:52;;;;;;;108.77;104.63;;;12.80;99.90;;;;;;5064708;28;20451;-67
2024/02/09 09:41:20;;;;;;;94.13;90.73;;;12.90;99.90;;;;;;5063328;28;20455;-67
2024/02/09 09:43:48;;;;;;;72.67;69.80;;;12.80;99.90;;;;;;5065534;28;20475;-67
2024/02/09 09:46:22;;;;;;;80.27;77.17;;;12.90;99.90;;;;;;5061357;28;20479;-67
2024/02/09 09:48:52;;;;;;;79.33;76.13;;;12.90;99.90;;;;;;5065265;28;20984;-67
2024/02/09 09:51:21;;;;;;;70.47;67.87;;;13.00;99.90;;;;;;5063184;28;21110;-67
2024/02/09 09:53:52;;;;;;;49.20;46.77;;;13.10;99.90;;;;;;5064790;28;20467;-66
2024/02/09 09:56:22;;;;;;;48.40;46.43;;;13.00;99.90;;;;;;5061544;28;20943;-67
2024/02/09 09:58:50;;;;;;;41.47;39.53;;;13.10;99.90;;;;;;5063943;28;20455;-67
2024/02/09 10:01:19;;;;;;;21.23;20.03;;;13.10;99.90;;;;;;5062707;28;20448;-66
2024/02/09 10:03:47;;;;;;;14.80;13.90;;;13.10;99.90;;;;;;5063926;28;20463;-67
2024/02/09 10:06:14;;;;;;;16.50;15.07;;;13.00;99.90;;;;;;5062402;28;20474;-67
2024/02/09 10:08:41;;;;;;;17.67;16.67;;;13.00;99.90;;;;;;5063928;28;20450;-67
2024/02/09 10:11:09;;;;;;;19.47;18.23;;;12.90;99.90;;;;;;5062258;28;20455;-67
2024/02/09 10:13:37;;;;;;;24.13;22.73;;;13.10;99.90;;;;;;5064503;28;20466;-68
2024/02/09 10:16:05;;;;;;;28.33;26.40;;;12.90;99.90;;;;;;5062980;28;20453;-67
2024/02/09 10:18:35;;;;;;;40.23;38.43;;;12.90;99.90;;;;;;5064023;28;20446;-67
2024/02/09 10:21:02;;;;;;;32.47;30.77;;;12.90;99.90;;;;;;5063140;28;20987;-67
2024/02/09 10:23:32;;;;;;;40.03;38.33;;;12.90;99.90;;;;;;5063703;28;20980;-67
2024/02/09 10:26:04;;;;;;;43.40;41.40;;;12.90;99.90;;;;;;5063594;28;21054;-67
2024/02/09 10:28:31;;;;;;;36.07;34.47;;;13.00;99.90;;;;;;5063966;28;20455;-67
2024/02/09 10:30:59;;;;;;;29.77;28.33;;;13.00;99.90;;;;;;5063578;28;20837;-67
2024/02/09 10:33:27;;;;;;;20.30;19.00;;;13.10;99.90;;;;;;5063366;28;20475;-66
2024/02/09 10:35:56;;;;;;;26.27;24.90;;;13.10;99.90;;;;;;5061206;28;20453;-67
2024/02/09 10:38:23;;;;;;;19.87;18.60;;;13.00;99.90;;;;;;5063629;28;20477;-67
2024/02/09 10:40:54;;;;;;;23.20;21.80;;;13.00;99.90;;;;;;5058922;28;20573;-67
2024/02/09 10:43:22;;;;;;;29.13;27.73;;;13.00;99.90;;;;;;5051896;28;20490;-67
2024/02/09 10:45:51;;;;;;;28.33;26.93;;;13.00;99.90;;;;;;5043843;28;20475;-67
2024/02/09 10:48:22;;;;;;;27.57;26.00;;;13.10;99.90;;;;;;5052082;28;20963;-67
2024/02/09 10:50:53;;;;;;;21.43;20.23;;;12.90;99.90;;;;;;5043904;28;20834;-67
2024/02/09 10:53:24;;;;;;;39.15;37.35;;;12.90;99.90;;;;;;5051664;28;20460;-67
2024/02/09 10:56:05;;;;;;;34.43;32.83;;;12.90;99.90;;;;;;5044665;28;20642;-67
2024/02/09 10:58:35;;;;;;;29.97;28.57;;;12.80;99.90;;;;;;5051979;28;20451;-67
2024/02/09 11:01:04;;;;;;;21.90;20.63;;;12.80;99.90;;;;;;5052286;28;20518;-67
2024/02/09 11:03:31;;;;;;;28.10;26.60;;;12.80;99.90;;;;;;5051680;28;20562;-67
2024/02/09 11:06:00;;;;;;;31.20;29.70;;;12.80;99.90;;;;;;5052076;28;20505;-68
2024/02/09 11:08:29;;;;;;;30.60;28.60;;;12.80;99.90;;;;;;5051597;28;20447;-66
2024/02/09 11:10:59;;;;;;;28.17;26.90;;;12.90;99.90;;;;;;5051285;28;20452;-67
2024/02/09 11:13:26;;;;;;;31.55;29.85;;;12.70;99.90;;;;;;5050723;28;20448;-69
2024/02/09 11:15:57;;;;;;;24.07;22.73;;;12.70;99.90;;;;;;5052053;28;20622;-68
2024/02/09 11:18:30;;;;;;;16.83;15.53;;;12.70;99.90;;;;;;5051643;28;20546;-68
2024/02/09 11:21:01;;;;;;;17.00;16.00;;;12.90;99.90;;;;;;5051519;28;20454;-67
2024/02/09 11:23:31;;;;;;;21.57;20.47;;;13.00;99.90;;;;;;5051445;28;20514;-67
2024/02/09 11:25:59;;;;;;;20.30;19.10;;;13.10;99.90;;;;;;5051845;28;20462;-68
2024/02/09 11:28:26;;;;;;;16.60;15.70;;;13.20;99.90;;;;;;5051404;28;20455;-66
2024/02/09 11:30:56;;;;;;;11.00;10.00;;;13.30;99.90;;;;;;5051420;28;20462;-66
2024/02/09 11:33:23;;;;;;;15.47;14.40;;;13.50;99.90;;;;;;5051385;28;20526;-66
2024/02/09 11:35:49;;;;;;;11.77;10.80;;;13.50;99.90;;;;;;5051501;28;20451;-67
2024/02/09 11:38:20;;;;;;;8.60;7.90;;;13.60;99.90;;;;;;5051251;28;20534;-67
2024/02/09 11:40:49;;;;;;;7.93;7.03;;;13.60;99.90;;;;;;5051252;28;20455;-67
2024/02/09 11:43:16;;;;;;;8.20;7.50;;;13.70;99.90;;;;;;5051271;28;20467;-67
2024/02/09 11:45:43;;;;;;;6.17;5.60;;;13.60;99.90;;;;;;5051307;28;20447;-67
2024/02/09 11:48:11;;;;;;;6.67;5.17;;;13.60;99.90;;;;;;5051388;28;20495;-68
2024/02/09 11:50:38;;;;;;;7.00;4.80;;;13.60;99.90;;;;;;5050702;28;20942;-67
2024/02/09 11:53:06;;;;;;;7.40;4.80;;;13.60;99.90;;;;;;5051275;28;20566;-67
2024/02/09 11:55:33;;;;;;;8.70;3.67;;;13.80;99.90;;;;;;5051293;28;20461;-67
2024/02/09 11:58:01;;;;;;;6.00;4.23;;;13.80;99.90;;;;;;5051310;28;20458;-68
2024/02/09 12:00:28;;;;;;;7.63;4.00;;;13.90;99.90;;;;;;5050828;28;20465;-67
2024/02/09 12:02:58;;;;;;;5.90;3.30;;;14.10;99.90;;;;;;5051786;28;20479;-66
2024/02/09 12:05:25;;;;;;;6.97;4.53;;;14.20;99.90;;;;;;5054740;28;20928;-67
2024/02/09 12:07:52;;;;;;;10.90;4.20;;;14.20;99.90;;;;;;5054684;28;20493;-67
2024/02/09 12:10:20;;;;;;;5.50;4.53;;;14.20;99.90;;;;;;5054986;28;20451;-67
2024/02/09 12:12:48;;;;;;;8.87;3.80;;;14.10;99.90;;;;;;5054705;28;20470;-68
2024/02/09 12:15:19;;;;;;;5.23;3.80;;;14.00;99.90;;;;;;5054650;28;20454;-66
2024/02/09 12:17:45;;;;;;;6.33;3.73;;;14.10;99.90;;;;;;5055160;28;20451;-67
2024/02/09 12:20:14;;;;;;;7.33;3.57;;;14.10;99.90;;;;;;5054690;28;20461;-67
2024/02/09 12:22:41;;;;;;;8.03;3.77;;;14.10;99.90;;;;;;5054206;28;20475;-67
2024/02/09 12:25:11;;;;;;;8.30;3.97;;;14.30;99.90;;;;;;5054632;28;20461;-67
2024/02/09 12:27:38;;;;;;;5.17;3.70;;;14.30;99.90;;;;;;5054038;28;20483;-67
2024/02/09 12:30:08;;;;;;;12.07;3.60;;;14.30;99.90;;;;;;5054371;28;20501;-67
2024/02/09 12:32:37;;;;;;;5.70;2.50;;;14.40;99.90;;;;;;5054264;28;20475;-67
2024/02/09 12:35:04;;;;;;;5.70;2.83;;;14.50;99.90;;;;;;5054570;28;20459;-66
2024/02/09 12:37:32;;;;;;;5.13;2.30;;;14.40;99.90;;;;;;5054219;28;20478;-67
2024/02/09 12:40:01;;;;;;;5.10;2.80;;;14.50;99.90;;;;;;5053889;28;20447;-66
2024/02/09 12:42:32;;;;;;;8.43;2.80;;;14.60;99.90;;;;;;5053459;28;20475;-65
2024/02/09 12:44:59;;;;;;;5.87;2.70;;;14.60;99.90;;;;;;5053005;28;20486;-67
2024/02/09 12:47:25;;;;;;;10.00;2.60;;;14.70;99.90;;;;;;5053999;28;20479;-67
2024/02/09 12:49:54;;;;;;;8.43;3.07;;;14.40;99.90;;;;;;5054318;28;20455;-67
2024/02/09 12:52:25;;;;;;;5.70;2.40;;;14.30;99.90;;;;;;5053730;28;20475;-67
2024/02/09 12:54:54;;;;;;;14.37;2.53;;;14.30;99.90;;;;;;5054227;28;20451;-67
2024/02/09 12:57:21;;;;;;;8.03;3.33;;;14.20;99.90;;;;;;5053657;28;20985;-67
2024/02/09 12:59:48;;;;;;;8.53;3.47;;;14.10;99.90;;;;;;5054059;28;20487;-67
2024/02/09 13:02:16;;;;;;;5.10;3.10;;;14.10;99.90;;;;;;5053533;28;20463;-67
2024/02/09 13:04:42;;;;;;;5.53;3.10;;;13.90;99.90;;;;;;5053835;28;20455;-67
2024/02/09 13:07:11;;;;;;;6.80;2.80;;;13.90;99.90;;;;;;5053753;28;20933;-67
2024/02/09 13:09:38;;;;;;;5.80;2.70;;;14.00;99.90;;;;;;5053569;28;20451;-67
2024/02/09 13:12:06;;;;;;;6.70;3.23;;;14.00;99.90;;;;;;5053443;28;20451;-67
2024/02/09 13:14:37;;;;;;;7.10;2.60;;;14.00;99.90;;;;;;5053450;28;20501;-67
2024/02/09 13:17:04;;;;;;;10.30;4.50;;;14.10;99.90;;;;;;5053694;28;20451;-67
2024/02/09 13:19:31;;;;;;;9.17;3.87;;;14.10;99.90;;;;;;5053616;28;20451;-67
2024/02/09 13:22:01;;;;;;;7.53;3.90;;;14.00;99.90;;;;;;5053071;28;20507;-68
2024/02/09 13:24:30;;;;;;;7.67;4.10;;;13.80;99.90;;;;;;5053764;28;20461;-67
2024/02/09 13:26:57;;;;;;;6.63;5.07;;;13.70;99.90;;;;;;5053535;28;20483;-67
2024/02/09 13:29:24;;;;;;;7.93;5.10;;;13.70;99.90;;;;;;5053567;28;20505;-67
2024/02/09 13:31:51;;;;;;;6.90;5.40;;;13.60;99.90;;;;;;5052969;28;20451;-66
2024/02/09 13:34:18;;;;;;;7.17;5.30;;;13.50;99.90;;;;;;5051282;28;20458;-67
2024/02/09 13:36:45;;;;;;;8.77;6.10;;;13.50;99.90;;;;;;5052534;28;20452;-67
2024/02/09 13:39:12;;;;;;;7.20;5.73;;;13.50;99.90;;;;;;5052551;28;20459;-67
2024/02/09 13:41:41;;;;;;;7.03;5.45;;;13.50;99.90;;;;;;5050688;28;20451;-68
2024/02/09 13:44:08;;;;;;;7.27;4.40;;;13.50;99.90;;;;;;5051478;28;20221;-68
2024/02/09 13:46:35;;;;;;;10.03;4.43;;;13.50;99.90;;;;;;5051258;28;20460;-68
2024/02/09 13:49:02;;;;;;;8.83;4.10;;;13.40;99.90;;;;;;5051263;28;20447;-68
2024/02/09 13:51:31;;;;;;;7.30;4.10;;;13.50;99.90;;;;;;5050496;28;20455;-69
2024/02/09 13:54:00;;;;;;;5.67;3.30;;;13.50;99.90;;;;;;5050473;28;20966;-67
2024/02/09 13:56:27;;;;;;;8.70;3.57;;;13.60;99.90;;;;;;5052772;28;20451;-69
2024/02/09 13:58:55;;;;;;;7.27;3.57;;;13.60;99.90;;;;;;5053004;28;20459;-68
2024/02/09 14:01:22;;;;;;;4.50;2.93;;;13.60;99.90;;;;;;5052674;28;20451;-68
2024/02/09 14:03:50;;;;;;;10.90;2.60;;;13.60;99.90;;;;;;5052356;28;20471;-68
2024/02/09 14:06:18;;;;;;;10.27;3.10;;;13.60;99.90;;;;;;5052806;28;20449;-68
2024/02/09 14:08:45;;;;;;;6.07;3.10;;;13.60;99.90;;;;;;5051803;28;20494;-68
2024/02/09 14:11:13;;;;;;;7.82;3.00;;;13.60;99.90;;;;;;5051691;28;21004;-68